Terminal Aerodrome Forecast
Issued by NWS

Home | Current Version | Previous Version | Text Only | Print | Product List | Glossary On
Versions: 1 2 3 4 5 6 7 8 9 10 11 12 13 14 15
000
FTUS41 KBGM 271100
TAFRME
TAF
KRME 271127Z 2712/2812 VRB02KT P6SM SCT022 BKN040
      TEMPO 2712/2714 BKN022 OVC040
     FM271500 28008KT P6SM SCT040
     FM280000 28004KT P6SM FEW060=

USA.gov is the U.S. government's official web portal to all federal, state and local government web resources and services.